sensor_id;sensor_type;location;lat;lon;timestamp;P1;durP1;ratioP1;P2;durP2;ratioP2
64667;SDS011;51077;42.716;23.344;2022-09-01T00:01:04;9.98;;;8.15;;
64667;SDS011;51077;42.716;23.344;2022-09-01T00:03:35;9.52;;;7.53;;
64667;SDS011;51077;42.716;23.344;2022-09-01T00:06:00;10.83;;;7.83;;
64667;SDS011;51077;42.716;23.344;2022-09-01T00:08:28;11.55;;;7.55;;
64667;SDS011;51077;42.716;23.344;2022-09-01T00:10:53;8.67;;;7.13;;
64667;SDS011;51077;42.716;23.344;2022-09-01T00:13:19;10.30;;;7.93;;
64667;SDS011;51077;42.716;23.344;2022-09-01T00:15:44;9.57;;;7.20;;
64667;SDS011;51077;42.716;23.344;2022-09-01T00:18:10;10.63;;;7.90;;
64667;SDS011;51077;42.716;23.344;2022-09-01T00:20:36;10.77;;;7.45;;
64667;SDS011;51077;42.716;23.344;2022-09-01T00:23:01;9.77;;;7.50;;
64667;SDS011;51077;42.716;23.344;2022-09-01T00:25:27;9.47;;;7.60;;
64667;SDS011;51077;42.716;23.344;2022-09-01T00:27:54;9.43;;;7.78;;
64667;SDS011;51077;42.716;23.344;2022-09-01T00:30:24;11.00;;;7.63;;
64667;SDS011;51077;42.716;23.344;2022-09-01T00:32:50;9.65;;;7.97;;
64667;SDS011;51077;42.716;23.344;2022-09-01T00:35:17;12.60;;;8.17;;
64667;SDS011;51077;42.716;23.344;2022-09-01T00:37:44;10.20;;;8.15;;
64667;SDS011;51077;42.716;23.344;2022-09-01T00:40:10;13.03;;;7.90;;
64667;SDS011;51077;42.716;23.344;2022-09-01T00:42:38;13.82;;;8.13;;
64667;SDS011;51077;42.716;23.344;2022-09-01T00:45:05;11.27;;;8.35;;
64667;SDS011;51077;42.716;23.344;2022-09-01T00:47:32;12.45;;;7.68;;
64667;SDS011;51077;42.716;23.344;2022-09-01T00:50:00;10.60;;;8.05;;
64667;SDS011;51077;42.716;23.344;2022-09-01T00:52:33;15.05;;;8.88;;
64667;SDS011;51077;42.716;23.344;2022-09-01T00:55:10;10.70;;;8.68;;
64667;SDS011;51077;42.716;23.344;2022-09-01T00:57:47;10.95;;;7.78;;
64667;SDS011;51077;42.716;23.344;2022-09-01T01:00:18;11.40;;;8.40;;
64667;SDS011;51077;42.716;23.344;2022-09-01T01:02:47;9.13;;;8.00;;
64667;SDS011;51077;42.716;23.344;2022-09-01T01:05:19;12.45;;;7.85;;
64667;SDS011;51077;42.716;23.344;2022-09-01T01:07:46;11.82;;;7.53;;
64667;SDS011;51077;42.716;23.344;2022-09-01T01:10:13;13.40;;;8.65;;
64667;SDS011;51077;42.716;23.344;2022-09-01T01:12:41;9.38;;;8.10;;
64667;SDS011;51077;42.716;23.344;2022-09-01T01:15:08;14.90;;;8.98;;
64667;SDS011;51077;42.716;23.344;2022-09-01T01:17:37;9.48;;;7.57;;
64667;SDS011;51077;42.716;23.344;2022-09-01T01:20:04;12.20;;;7.83;;
64667;SDS011;51077;42.716;23.344;2022-09-01T01:23:13;14.55;;;8.73;;
64667;SDS011;51077;42.716;23.344;2022-09-01T01:28:18;13.30;;;8.73;;
64667;SDS011;51077;42.716;23.344;2022-09-01T01:30:48;13.70;;;9.00;;
64667;SDS011;51077;42.716;23.344;2022-09-01T01:33:26;14.05;;;9.50;;
64667;SDS011;51077;42.716;23.344;2022-09-01T01:35:54;14.07;;;8.95;;
64667;SDS011;51077;42.716;23.344;2022-09-01T01:38:21;13.20;;;9.73;;
64667;SDS011;51077;42.716;23.344;2022-09-01T01:40:48;11.88;;;9.90;;
64667;SDS011;51077;42.716;23.344;2022-09-01T01:43:15;14.63;;;9.98;;
64667;SDS011;51077;42.716;23.344;2022-09-01T01:45:49;11.50;;;9.57;;
64667;SDS011;51077;42.716;23.344;2022-09-01T01:48:17;15.77;;;10.05;;
64667;SDS011;51077;42.716;23.344;2022-09-01T01:50:48;13.05;;;9.93;;
64667;SDS011;51077;42.716;23.344;2022-09-01T01:53:14;16.17;;;10.18;;
64667;SDS011;51077;42.716;23.344;2022-09-01T01:55:44;16.63;;;10.68;;
64667;SDS011;51077;42.716;23.344;2022-09-01T01:58:12;18.67;;;11.00;;
64667;SDS011;51077;42.716;23.344;2022-09-01T02:00:39;16.38;;;10.85;;
64667;SDS011;51077;42.716;23.344;2022-09-01T02:03:09;18.42;;;10.55;;
64667;SDS011;51077;42.716;23.344;2022-09-01T02:05:37;16.63;;;10.48;;
64667;SDS011;51077;42.716;23.344;2022-09-01T02:08:05;15.93;;;10.63;;
64667;SDS011;51077;42.716;23.344;2022-09-01T02:10:34;14.88;;;10.05;;
64667;SDS011;51077;42.716;23.344;2022-09-01T02:13:03;16.23;;;10.40;;
64667;SDS011;51077;42.716;23.344;2022-09-01T02:15:32;16.67;;;11.15;;
64667;SDS011;51077;42.716;23.344;2022-09-01T02:18:07;20.20;;;10.88;;
64667;SDS011;51077;42.716;23.344;2022-09-01T02:20:33;16.45;;;10.63;;
64667;SDS011;51077;42.716;23.344;2022-09-01T02:22:59;14.47;;;10.40;;
64667;SDS011;51077;42.716;23.344;2022-09-01T02:25:33;14.32;;;11.63;;
64667;SDS011;51077;42.716;23.344;2022-09-01T02:28:00;15.48;;;11.65;;
64667;SDS011;51077;42.716;23.344;2022-09-01T02:30:28;17.45;;;11.07;;
64667;SDS011;51077;42.716;23.344;2022-09-01T02:32:57;18.48;;;11.52;;
64667;SDS011;51077;42.716;23.344;2022-09-01T02:35:24;17.02;;;12.02;;
64667;SDS011;51077;42.716;23.344;2022-09-01T02:40:25;21.25;;;12.75;;
64667;SDS011;51077;42.716;23.344;2022-09-01T02:42:54;15.98;;;11.73;;
64667;SDS011;51077;42.716;23.344;2022-09-01T02:45:20;21.10;;;12.25;;
64667;SDS011;51077;42.716;23.344;2022-09-01T02:47:49;17.05;;;12.25;;
64667;SDS011;51077;42.716;23.344;2022-09-01T02:50:15;16.52;;;12.48;;
64667;SDS011;51077;42.716;23.344;2022-09-01T02:52:46;20.25;;;13.52;;
64667;SDS011;51077;42.716;23.344;2022-09-01T02:55:16;16.50;;;11.77;;
64667;SDS011;51077;42.716;23.344;2022-09-01T02:57:45;20.95;;;12.30;;
64667;SDS011;51077;42.716;23.344;2022-09-01T03:00:12;19.30;;;13.50;;
64667;SDS011;51077;42.716;23.344;2022-09-01T03:02:53;19.42;;;12.55;;
64667;SDS011;51077;42.716;23.344;2022-09-01T03:05:21;18.85;;;13.35;;
64667;SDS011;51077;42.716;23.344;2022-09-01T03:07:54;17.95;;;12.55;;
64667;SDS011;51077;42.716;23.344;2022-09-01T03:10:27;17.63;;;13.85;;
64667;SDS011;51077;42.716;23.344;2022-09-01T03:13:00;19.45;;;13.57;;
64667;SDS011;51077;42.716;23.344;2022-09-01T03:15:27;19.15;;;14.57;;
64667;SDS011;51077;42.716;23.344;2022-09-01T03:17:53;19.65;;;13.38;;
64667;SDS011;51077;42.716;23.344;2022-09-01T03:20:19;20.75;;;14.88;;
64667;SDS011;51077;42.716;23.344;2022-09-01T03:22:49;20.40;;;15.20;;
64667;SDS011;51077;42.716;23.344;2022-09-01T03:25:15;21.92;;;14.98;;
64667;SDS011;51077;42.716;23.344;2022-09-01T03:27:43;20.40;;;14.57;;
64667;SDS011;51077;42.716;23.344;2022-09-01T03:30:09;18.48;;;13.68;;
64667;SDS011;51077;42.716;23.344;2022-09-01T03:32:35;17.42;;;12.65;;
64667;SDS011;51077;42.716;23.344;2022-09-01T03:35:01;18.00;;;12.10;;
64667;SDS011;51077;42.716;23.344;2022-09-01T03:37:27;19.17;;;11.38;;
64667;SDS011;51077;42.716;23.344;2022-09-01T03:39:52;20.63;;;11.87;;
64667;SDS011;51077;42.716;23.344;2022-09-01T03:42:19;20.45;;;11.30;;
64667;SDS011;51077;42.716;23.344;2022-09-01T03:44:46;14.52;;;10.45;;
64667;SDS011;51077;42.716;23.344;2022-09-01T03:47:13;15.30;;;11.55;;
64667;SDS011;51077;42.716;23.344;2022-09-01T03:49:39;19.33;;;12.30;;
64667;SDS011;51077;42.716;23.344;2022-09-01T03:52:07;23.05;;;13.00;;
64667;SDS011;51077;42.716;23.344;2022-09-01T03:54:34;23.77;;;12.50;;
64667;SDS011;51077;42.716;23.344;2022-09-01T03:57:00;20.50;;;14.20;;
64667;SDS011;51077;42.716;23.344;2022-09-01T03:59:30;22.63;;;13.65;;
64667;SDS011;51077;42.716;23.344;2022-09-01T04:01:56;24.23;;;14.00;;
64667;SDS011;51077;42.716;23.344;2022-09-01T04:04:22;20.75;;;14.25;;
64667;SDS011;51077;42.716;23.344;2022-09-01T04:06:47;27.87;;;14.07;;
64667;SDS011;51077;42.716;23.344;2022-09-01T04:09:13;24.33;;;14.37;;
64667;SDS011;51077;42.716;23.344;2022-09-01T04:11:39;27.90;;;16.77;;
64667;SDS011;51077;42.716;23.344;2022-09-01T04:14:05;24.38;;;14.32;;
64667;SDS011;51077;42.716;23.344;2022-09-01T04:16:34;25.95;;;15.70;;
64667;SDS011;51077;42.716;23.344;2022-09-01T04:19:20;29.55;;;15.63;;
64667;SDS011;51077;42.716;23.344;2022-09-01T04:21:54;24.65;;;15.52;;
64667;SDS011;51077;42.716;23.344;2022-09-01T04:24:25;25.00;;;15.85;;
64667;SDS011;51077;42.716;23.344;2022-09-01T04:26:53;26.48;;;16.45;;
64667;SDS011;51077;42.716;23.344;2022-09-01T04:29:21;20.17;;;14.52;;
64667;SDS011;51077;42.716;23.344;2022-09-01T04:31:53;25.58;;;16.25;;
64667;SDS011;51077;42.716;23.344;2022-09-01T04:34:20;22.83;;;15.68;;
64667;SDS011;51077;42.716;23.344;2022-09-01T04:36:48;23.52;;;16.02;;
64667;SDS011;51077;42.716;23.344;2022-09-01T04:39:17;21.02;;;14.50;;
64667;SDS011;51077;42.716;23.344;2022-09-01T04:41:43;21.77;;;14.63;;
64667;SDS011;51077;42.716;23.344;2022-09-01T04:44:14;23.60;;;15.13;;
64667;SDS011;51077;42.716;23.344;2022-09-01T04:46:43;21.88;;;14.77;;
64667;SDS011;51077;42.716;23.344;2022-09-01T04:49:16;23.85;;;15.43;;
64667;SDS011;51077;42.716;23.344;2022-09-01T04:51:49;23.23;;;15.35;;
64667;SDS011;51077;42.716;23.344;2022-09-01T04:54:15;27.00;;;16.73;;
64667;SDS011;51077;42.716;23.344;2022-09-01T04:56:42;22.63;;;15.10;;
64667;SDS011;51077;42.716;23.344;2022-09-01T04:59:11;20.02;;;14.45;;
64667;SDS011;51077;42.716;23.344;2022-09-01T05:01:38;23.40;;;15.07;;
64667;SDS011;51077;42.716;23.344;2022-09-01T05:04:23;24.70;;;15.23;;
64667;SDS011;51077;42.716;23.344;2022-09-01T05:06:52;22.13;;;15.55;;
64667;SDS011;51077;42.716;23.344;2022-09-01T05:09:25;20.80;;;15.05;;
64667;SDS011;51077;42.716;23.344;2022-09-01T05:11:55;21.83;;;14.07;;
64667;SDS011;51077;42.716;23.344;2022-09-01T05:14:21;23.20;;;14.38;;
64667;SDS011;51077;42.716;23.344;2022-09-01T05:16:48;22.10;;;15.48;;
64667;SDS011;51077;42.716;23.344;2022-09-01T05:19:15;25.48;;;17.20;;
64667;SDS011;51077;42.716;23.344;2022-09-01T05:21:45;21.98;;;15.23;;
64667;SDS011;51077;42.716;23.344;2022-09-01T05:24:14;23.90;;;15.40;;
64667;SDS011;51077;42.716;23.344;2022-09-01T05:26:45;23.13;;;15.95;;
64667;SDS011;51077;42.716;23.344;2022-09-01T05:29:13;25.02;;;16.90;;
64667;SDS011;51077;42.716;23.344;2022-09-01T05:31:42;25.45;;;17.63;;
64667;SDS011;51077;42.716;23.344;2022-09-01T05:34:10;23.58;;;15.57;;
64667;SDS011;51077;42.716;23.344;2022-09-01T05:36:40;24.92;;;17.13;;
64667;SDS011;51077;42.716;23.344;2022-09-01T05:39:06;25.38;;;17.80;;
64667;SDS011;51077;42.716;23.344;2022-09-01T05:41:35;26.27;;;17.80;;
64667;SDS011;51077;42.716;23.344;2022-09-01T05:44:01;26.50;;;18.33;;
64667;SDS011;51077;42.716;23.344;2022-09-01T05:46:31;25.35;;;17.48;;
64667;SDS011;51077;42.716;23.344;2022-09-01T05:48:56;30.83;;;19.20;;
64667;SDS011;51077;42.716;23.344;2022-09-01T05:51:22;33.90;;;20.23;;
64667;SDS011;51077;42.716;23.344;2022-09-01T05:53:54;30.98;;;20.67;;
64667;SDS011;51077;42.716;23.344;2022-09-01T05:56:23;30.20;;;20.45;;
64667;SDS011;51077;42.716;23.344;2022-09-01T05:58:50;33.53;;;19.88;;
64667;SDS011;51077;42.716;23.344;2022-09-01T06:01:17;33.58;;;20.77;;
64667;SDS011;51077;42.716;23.344;2022-09-01T06:03:49;28.55;;;19.95;;
64667;SDS011;51077;42.716;23.344;2022-09-01T06:06:18;32.45;;;20.15;;
64667;SDS011;51077;42.716;23.344;2022-09-01T06:08:47;34.35;;;21.35;;
64667;SDS011;51077;42.716;23.344;2022-09-01T06:11:14;34.00;;;21.42;;
64667;SDS011;51077;42.716;23.344;2022-09-01T06:13:40;33.40;;;21.30;;
64667;SDS011;51077;42.716;23.344;2022-09-01T06:16:06;30.83;;;20.83;;
64667;SDS011;51077;42.716;23.344;2022-09-01T06:18:33;34.08;;;21.63;;
64667;SDS011;51077;42.716;23.344;2022-09-01T06:21:01;33.05;;;21.02;;
64667;SDS011;51077;42.716;23.344;2022-09-01T06:23:28;34.85;;;21.88;;
64667;SDS011;51077;42.716;23.344;2022-09-01T06:25:54;35.47;;;22.17;;
64667;SDS011;51077;42.716;23.344;2022-09-01T06:28:19;37.77;;;22.60;;
64667;SDS011;51077;42.716;23.344;2022-09-01T06:30:48;40.55;;;23.60;;
64667;SDS011;51077;42.716;23.344;2022-09-01T06:33:14;34.33;;;22.30;;
64667;SDS011;51077;42.716;23.344;2022-09-01T06:35:41;37.87;;;23.50;;
64667;SDS011;51077;42.716;23.344;2022-09-01T06:38:09;36.30;;;22.60;;
64667;SDS011;51077;42.716;23.344;2022-09-01T06:40:36;34.60;;;21.95;;
64667;SDS011;51077;42.716;23.344;2022-09-01T06:43:04;32.88;;;21.27;;
64667;SDS011;51077;42.716;23.344;2022-09-01T06:45:32;33.85;;;23.05;;
64667;SDS011;51077;42.716;23.344;2022-09-01T06:48:04;33.83;;;22.42;;
64667;SDS011;51077;42.716;23.344;2022-09-01T06:50:30;38.60;;;23.80;;
64667;SDS011;51077;42.716;23.344;2022-09-01T06:52:55;35.37;;;21.20;;
64667;SDS011;51077;42.716;23.344;2022-09-01T06:55:35;31.60;;;20.95;;
64667;SDS011;51077;42.716;23.344;2022-09-01T06:58:02;39.55;;;22.30;;
64667;SDS011;51077;42.716;23.344;2022-09-01T07:00:30;31.73;;;20.27;;
64667;SDS011;51077;42.716;23.344;2022-09-01T07:02:56;34.50;;;21.00;;
64667;SDS011;51077;42.716;23.344;2022-09-01T07:05:23;28.48;;;19.25;;
64667;SDS011;51077;42.716;23.344;2022-09-01T07:07:50;34.83;;;19.25;;
64667;SDS011;51077;42.716;23.344;2022-09-01T07:10:19;26.77;;;18.33;;
64667;SDS011;51077;42.716;23.344;2022-09-01T07:12:56;25.38;;;17.75;;
64667;SDS011;51077;42.716;23.344;2022-09-01T07:15:25;26.95;;;18.25;;
64667;SDS011;51077;42.716;23.344;2022-09-01T07:17:55;25.80;;;18.38;;
64667;SDS011;51077;42.716;23.344;2022-09-01T07:20:23;27.10;;;18.80;;
64667;SDS011;51077;42.716;23.344;2022-09-01T07:22:51;24.73;;;17.23;;
64667;SDS011;51077;42.716;23.344;2022-09-01T07:25:17;22.90;;;16.15;;
64667;SDS011;51077;42.716;23.344;2022-09-01T07:27:44;25.52;;;16.83;;
64667;SDS011;51077;42.716;23.344;2022-09-01T07:30:13;24.63;;;17.58;;
64667;SDS011;51077;42.716;23.344;2022-09-01T07:32:39;22.88;;;15.15;;
64667;SDS011;51077;42.716;23.344;2022-09-01T07:35:07;21.83;;;15.63;;
64667;SDS011;51077;42.716;23.344;2022-09-01T07:37:34;22.05;;;16.30;;
64667;SDS011;51077;42.716;23.344;2022-09-01T07:40:07;23.67;;;16.50;;
64667;SDS011;51077;42.716;23.344;2022-09-01T07:42:34;22.88;;;16.70;;
64667;SDS011;51077;42.716;23.344;2022-09-01T07:45:02;21.58;;;16.10;;
64667;SDS011;51077;42.716;23.344;2022-09-01T07:47:33;18.95;;;14.23;;
64667;SDS011;51077;42.716;23.344;2022-09-01T07:50:01;18.20;;;13.85;;
64667;SDS011;51077;42.716;23.344;2022-09-01T07:52:32;18.48;;;14.60;;
64667;SDS011;51077;42.716;23.344;2022-09-01T07:55:02;20.33;;;14.00;;
64667;SDS011;51077;42.716;23.344;2022-09-01T07:57:28;19.47;;;14.03;;
64667;SDS011;51077;42.716;23.344;2022-09-01T07:59:53;19.77;;;14.63;;
64667;SDS011;51077;42.716;23.344;2022-09-01T08:02:20;23.58;;;14.85;;
64667;SDS011;51077;42.716;23.344;2022-09-01T08:04:45;18.63;;;15.03;;
64667;SDS011;51077;42.716;23.344;2022-09-01T08:07:12;17.15;;;13.18;;
64667;SDS011;51077;42.716;23.344;2022-09-01T08:09:38;25.67;;;15.50;;
64667;SDS011;51077;42.716;23.344;2022-09-01T08:12:04;24.07;;;14.73;;
64667;SDS011;51077;42.716;23.344;2022-09-01T08:14:30;24.00;;;15.45;;
64667;SDS011;51077;42.716;23.344;2022-09-01T08:16:56;22.83;;;13.80;;
64667;SDS011;51077;42.716;23.344;2022-09-01T08:19:22;19.90;;;14.17;;
64667;SDS011;51077;42.716;23.344;2022-09-01T08:21:47;20.77;;;13.90;;
64667;SDS011;51077;42.716;23.344;2022-09-01T08:24:13;19.97;;;14.80;;
64667;SDS011;51077;42.716;23.344;2022-09-01T08:26:38;23.07;;;14.20;;
64667;SDS011;51077;42.716;23.344;2022-09-01T08:29:04;20.97;;;13.57;;
64667;SDS011;51077;42.716;23.344;2022-09-01T08:31:29;18.87;;;14.20;;
64667;SDS011;51077;42.716;23.344;2022-09-01T08:33:56;20.47;;;12.97;;
64667;SDS011;51077;42.716;23.344;2022-09-01T08:36:23;18.97;;;13.50;;
64667;SDS011;51077;42.716;23.344;2022-09-01T08:38:48;18.43;;;13.93;;
64667;SDS011;51077;42.716;23.344;2022-09-01T08:41:19;18.90;;;12.53;;
64667;SDS011;51077;42.716;23.344;2022-09-01T08:46:32;17.33;;;11.53;;
64667;SDS011;51077;42.716;23.344;2022-09-01T08:49:05;21.27;;;12.07;;
64667;SDS011;51077;42.716;23.344;2022-09-01T08:51:47;22.43;;;11.67;;
64667;SDS011;51077;42.716;23.344;2022-09-01T08:57:28;17.70;;;10.33;;
64667;SDS011;51077;42.716;23.344;2022-09-01T08:59:58;16.77;;;9.70;;
64667;SDS011;51077;42.716;23.344;2022-09-01T09:08:11;13.33;;;9.50;;
64667;SDS011;51077;42.716;23.344;2022-09-01T09:11:03;15.17;;;8.70;;
64667;SDS011;51077;42.716;23.344;2022-09-01T09:16:26;14.37;;;8.57;;
64667;SDS011;51077;42.716;23.344;2022-09-01T09:19:06;13.67;;;8.20;;
64667;SDS011;51077;42.716;23.344;2022-09-01T09:21:39;12.30;;;8.07;;
64667;SDS011;51077;42.716;23.344;2022-09-01T09:26:40;16.10;;;7.40;;
64667;SDS011;51077;42.716;23.344;2022-09-01T09:29:05;10.47;;;7.40;;
64667;SDS011;51077;42.716;23.344;2022-09-01T09:33:56;12.87;;;6.90;;
64667;SDS011;51077;42.716;23.344;2022-09-01T09:36:33;11.87;;;7.40;;
64667;SDS011;51077;42.716;23.344;2022-09-01T09:39:32;10.57;;;6.77;;
64667;SDS011;51077;42.716;23.344;2022-09-01T09:42:06;10.68;;;7.60;;
64667;SDS011;51077;42.716;23.344;2022-09-01T09:44:39;14.90;;;6.73;;
64667;SDS011;51077;42.716;23.344;2022-09-01T09:47:08;11.73;;;6.63;;
64667;SDS011;51077;42.716;23.344;2022-09-01T09:49:35;11.00;;;7.33;;
64667;SDS011;51077;42.716;23.344;2022-09-01T09:54:30;12.03;;;5.83;;
64667;SDS011;51077;42.716;23.344;2022-09-01T10:04:55;10.23;;;5.78;;
64667;SDS011;51077;42.716;23.344;2022-09-01T10:07:26;10.47;;;6.10;;
64667;SDS011;51077;42.716;23.344;2022-09-01T10:09:58;9.27;;;5.73;;
64667;SDS011;51077;42.716;23.344;2022-09-01T10:12:51;8.10;;;6.23;;
64667;SDS011;51077;42.716;23.344;2022-09-01T10:15:19;9.23;;;6.17;;
64667;SDS011;51077;42.716;23.344;2022-09-01T10:17:47;10.70;;;6.10;;
64667;SDS011;51077;42.716;23.344;2022-09-01T10:20:21;8.60;;;5.90;;
64667;SDS011;51077;42.716;23.344;2022-09-01T10:22:49;10.27;;;5.82;;
64667;SDS011;51077;42.716;23.344;2022-09-01T10:25:16;9.07;;;5.70;;
64667;SDS011;51077;42.716;23.344;2022-09-01T10:27:49;11.90;;;5.63;;
64667;SDS011;51077;42.716;23.344;2022-09-01T10:30:20;9.03;;;5.43;;
64667;SDS011;51077;42.716;23.344;2022-09-01T10:32:47;10.23;;;6.83;;
64667;SDS011;51077;42.716;23.344;2022-09-01T10:35:26;10.43;;;5.80;;
64667;SDS011;51077;42.716;23.344;2022-09-01T10:37:54;9.87;;;5.70;;
64667;SDS011;51077;42.716;23.344;2022-09-01T10:42:53;11.80;;;6.33;;
64667;SDS011;51077;42.716;23.344;2022-09-01T10:50:44;6.47;;;5.50;;
64667;SDS011;51077;42.716;23.344;2022-09-01T10:53:40;8.63;;;5.93;;
64667;SDS011;51077;42.716;23.344;2022-09-01T10:56:27;9.40;;;5.80;;
64667;SDS011;51077;42.716;23.344;2022-09-01T11:07:04;10.37;;;5.50;;
64667;SDS011;51077;42.716;23.344;2022-09-01T11:18:50;7.10;;;4.67;;
64667;SDS011;51077;42.716;23.344;2022-09-01T11:21:23;6.37;;;5.07;;
64667;SDS011;51077;42.716;23.344;2022-09-01T11:26:57;9.57;;;5.10;;
64667;SDS011;51077;42.716;23.344;2022-09-01T11:32:19;7.93;;;5.13;;
64667;SDS011;51077;42.716;23.344;2022-09-01T11:34:48;9.63;;;5.57;;
64667;SDS011;51077;42.716;23.344;2022-09-01T11:37:18;7.97;;;5.50;;
64667;SDS011;51077;42.716;23.344;2022-09-01T11:39:57;10.30;;;6.00;;
64667;SDS011;51077;42.716;23.344;2022-09-01T11:42:30;10.93;;;5.80;;
64667;SDS011;51077;42.716;23.344;2022-09-01T11:45:11;9.53;;;5.60;;
64667;SDS011;51077;42.716;23.344;2022-09-01T11:47:42;9.30;;;6.10;;
64667;SDS011;51077;42.716;23.344;2022-09-01T11:55:36;7.97;;;5.80;;
64667;SDS011;51077;42.716;23.344;2022-09-01T11:58:04;11.07;;;5.60;;
64667;SDS011;51077;42.716;23.344;2022-09-01T12:00:35;7.23;;;5.57;;
64667;SDS011;51077;42.716;23.344;2022-09-01T12:03:03;7.53;;;5.83;;
64667;SDS011;51077;42.716;23.344;2022-09-01T12:05:42;7.17;;;5.43;;
64667;SDS011;51077;42.716;23.344;2022-09-01T12:08:11;8.93;;;5.30;;
64667;SDS011;51077;42.716;23.344;2022-09-01T12:10:39;14.60;;;5.40;;
64667;SDS011;51077;42.716;23.344;2022-09-01T12:15:53;9.13;;;5.50;;
64667;SDS011;51077;42.716;23.344;2022-09-01T12:18:21;8.17;;;5.23;;
64667;SDS011;51077;42.716;23.344;2022-09-01T12:20:56;8.30;;;5.83;;
64667;SDS011;51077;42.716;23.344;2022-09-01T12:23:39;8.73;;;6.03;;
64667;SDS011;51077;42.716;23.344;2022-09-01T12:26:11;11.10;;;6.67;;
64667;SDS011;51077;42.716;23.344;2022-09-01T12:28:42;12.27;;;6.47;;
64667;SDS011;51077;42.716;23.344;2022-09-01T12:31:16;10.97;;;6.97;;
64667;SDS011;51077;42.716;23.344;2022-09-01T12:33:45;7.93;;;6.40;;
64667;SDS011;51077;42.716;23.344;2022-09-01T12:36:12;10.00;;;7.00;;
64667;SDS011;51077;42.716;23.344;2022-09-01T12:38:47;11.03;;;6.90;;
64667;SDS011;51077;42.716;23.344;2022-09-01T12:41:27;12.03;;;7.07;;
64667;SDS011;51077;42.716;23.344;2022-09-01T12:44:24;8.77;;;7.03;;
64667;SDS011;51077;42.716;23.344;2022-09-01T12:46:51;9.70;;;7.60;;
64667;SDS011;51077;42.716;23.344;2022-09-01T12:49:24;14.30;;;7.10;;
64667;SDS011;51077;42.716;23.344;2022-09-01T12:52:05;15.97;;;8.27;;
64667;SDS011;51077;42.716;23.344;2022-09-01T12:54:34;9.43;;;7.37;;
64667;SDS011;51077;42.716;23.344;2022-09-01T12:56:59;7.50;;;6.70;;
64667;SDS011;51077;42.716;23.344;2022-09-01T12:59:25;9.77;;;7.63;;
64667;SDS011;51077;42.716;23.344;2022-09-01T13:01:51;9.63;;;7.07;;
64667;SDS011;51077;42.716;23.344;2022-09-01T13:06:46;9.30;;;7.13;;
64667;SDS011;51077;42.716;23.344;2022-09-01T13:09:12;11.57;;;7.67;;
64667;SDS011;51077;42.716;23.344;2022-09-01T13:11:37;10.53;;;7.07;;
64667;SDS011;51077;42.716;23.344;2022-09-01T13:14:03;12.40;;;6.77;;
64667;SDS011;51077;42.716;23.344;2022-09-01T13:16:29;9.37;;;6.70;;
64667;SDS011;51077;42.716;23.344;2022-09-01T13:18:54;10.50;;;7.13;;
64667;SDS011;51077;42.716;23.344;2022-09-01T13:21:20;9.37;;;8.07;;
64667;SDS011;51077;42.716;23.344;2022-09-01T13:23:46;11.70;;;8.60;;
64667;SDS011;51077;42.716;23.344;2022-09-01T13:26:13;13.37;;;7.67;;
64667;SDS011;51077;42.716;23.344;2022-09-01T13:28:39;9.83;;;7.07;;
64667;SDS011;51077;42.716;23.344;2022-09-01T13:31:04;9.40;;;7.23;;
64667;SDS011;51077;42.716;23.344;2022-09-01T13:33:31;8.97;;;6.90;;
64667;SDS011;51077;42.716;23.344;2022-09-01T13:35:59;9.87;;;7.13;;
64667;SDS011;51077;42.716;23.344;2022-09-01T13:38:25;12.07;;;7.50;;
64667;SDS011;51077;42.716;23.344;2022-09-01T13:40:51;9.93;;;7.33;;
64667;SDS011;51077;42.716;23.344;2022-09-01T13:43:17;7.33;;;6.60;;
64667;SDS011;51077;42.716;23.344;2022-09-01T13:45:45;9.90;;;6.63;;
64667;SDS011;51077;42.716;23.344;2022-09-01T13:48:11;8.83;;;6.43;;
64667;SDS011;51077;42.716;23.344;2022-09-01T13:50:37;9.97;;;7.13;;
64667;SDS011;51077;42.716;23.344;2022-09-01T13:53:04;8.97;;;6.27;;
64667;SDS011;51077;42.716;23.344;2022-09-01T13:55:31;8.30;;;6.50;;
64667;SDS011;51077;42.716;23.344;2022-09-01T13:57:59;9.00;;;6.47;;
64667;SDS011;51077;42.716;23.344;2022-09-01T14:00:26;9.00;;;6.40;;
64667;SDS011;51077;42.716;23.344;2022-09-01T14:02:56;9.50;;;6.30;;
64667;SDS011;51077;42.716;23.344;2022-09-01T14:05:25;7.53;;;6.10;;
64667;SDS011;51077;42.716;23.344;2022-09-01T14:07:52;11.10;;;6.80;;
64667;SDS011;51077;42.716;23.344;2022-09-01T14:10:18;9.40;;;6.13;;
64667;SDS011;51077;42.716;23.344;2022-09-01T14:12:44;9.57;;;6.00;;
64667;SDS011;51077;42.716;23.344;2022-09-01T14:15:11;17.17;;;7.43;;
64667;SDS011;51077;42.716;23.344;2022-09-01T14:17:38;15.00;;;8.00;;
64667;SDS011;51077;42.716;23.344;2022-09-01T14:20:05;12.25;;;7.80;;
64667;SDS011;51077;42.716;23.344;2022-09-01T14:22:33;14.30;;;7.90;;
64667;SDS011;51077;42.716;23.344;2022-09-01T14:24:59;11.73;;;8.10;;
64667;SDS011;51077;42.716;23.344;2022-09-01T14:27:25;13.48;;;8.23;;
64667;SDS011;51077;42.716;23.344;2022-09-01T14:29:51;13.60;;;7.90;;
64667;SDS011;51077;42.716;23.344;2022-09-01T14:32:17;13.88;;;8.52;;
64667;SDS011;51077;42.716;23.344;2022-09-01T14:34:46;11.63;;;8.07;;
64667;SDS011;51077;42.716;23.344;2022-09-01T14:37:12;15.90;;;9.27;;
64667;SDS011;51077;42.716;23.344;2022-09-01T14:39:38;11.05;;;8.82;;
64667;SDS011;51077;42.716;23.344;2022-09-01T14:42:04;12.63;;;8.13;;
64667;SDS011;51077;42.716;23.344;2022-09-01T14:44:36;11.52;;;8.02;;
64667;SDS011;51077;42.716;23.344;2022-09-01T14:47:02;11.00;;;7.68;;
64667;SDS011;51077;42.716;23.344;2022-09-01T14:49:31;10.40;;;8.20;;
64667;SDS011;51077;42.716;23.344;2022-09-01T14:52:00;11.10;;;8.18;;
64667;SDS011;51077;42.716;23.344;2022-09-01T14:54:28;10.73;;;8.32;;
64667;SDS011;51077;42.716;23.344;2022-09-01T14:56:54;10.20;;;8.23;;
64667;SDS011;51077;42.716;23.344;2022-09-01T14:59:19;12.60;;;8.37;;
64667;SDS011;51077;42.716;23.344;2022-09-01T15:01:45;10.87;;;8.20;;
64667;SDS011;51077;42.716;23.344;2022-09-01T15:04:11;10.87;;;7.80;;
64667;SDS011;51077;42.716;23.344;2022-09-01T15:06:36;10.47;;;8.63;;
64667;SDS011;51077;42.716;23.344;2022-09-01T15:09:02;15.50;;;8.60;;
64667;SDS011;51077;42.716;23.344;2022-09-01T15:11:27;13.03;;;7.33;;
64667;SDS011;51077;42.716;23.344;2022-09-01T15:13:53;9.87;;;7.33;;
64667;SDS011;51077;42.716;23.344;2022-09-01T15:16:21;13.27;;;8.02;;
64667;SDS011;51077;42.716;23.344;2022-09-01T15:18:48;7.72;;;6.53;;
64667;SDS011;51077;42.716;23.344;2022-09-01T15:21:24;10.35;;;7.50;;
64667;SDS011;51077;42.716;23.344;2022-09-01T15:23:57;12.40;;;6.72;;
64667;SDS011;51077;42.716;23.344;2022-09-01T15:26:22;12.10;;;6.53;;
64667;SDS011;51077;42.716;23.344;2022-09-01T15:28:48;7.60;;;6.23;;
64667;SDS011;51077;42.716;23.344;2022-09-01T15:31:14;13.00;;;6.30;;
64667;SDS011;51077;42.716;23.344;2022-09-01T15:33:42;12.43;;;5.90;;
64667;SDS011;51077;42.716;23.344;2022-09-01T15:36:12;11.48;;;6.32;;
64667;SDS011;51077;42.716;23.344;2022-09-01T15:38:40;9.07;;;5.47;;
64667;SDS011;51077;42.716;23.344;2022-09-01T15:41:06;11.63;;;6.03;;
64667;SDS011;51077;42.716;23.344;2022-09-01T15:43:31;9.43;;;6.50;;
64667;SDS011;51077;42.716;23.344;2022-09-01T15:45:57;9.63;;;5.83;;